Terminal Aerodrome Forecast
Issued by NWS

Home | Current Version | Previous Version | Text Only | Print | Product List | Glossary On
Versions: 1 2 3 4 5 6 7 8 9 10 11 12 13 14 15 16 17 18 19
000
FTUS41 KBOX 121120
TAFACK
TAF
KACK 121120Z 1212/1312 15012KT P6SM OVC040
     FM121600 14014KT P6SM VCSH OVC025
     FM121800 14015KT 3SM -RA BR OVC025
     FM122200 20012KT P6SM SCT020 OVC040
     FM130200 24012KT P6SM OVC020
     FM130600 27013G22KT P6SM BKN025 OVC060
     FM130800 26017G28KT P6SM VCSH BKN020
     FM131000 26019G32KT P6SM VCSH BKN030=

USA.gov is the U.S. government's official web portal to all federal, state and local government web resources and services.